Time;durP1;ratioP1;P1;durP2;ratioP2;P2;SDS_P1;SDS_P2;PMS_P1;PMS_P2;Temp;Humidity;BMP_temperature;BMP_pressure;BME280_temperature;BME280_humidity;BME280_pressure;Samples;Min_cycle;Max_cycle;Signal;HPM_P1;HPM_P2
2021/11/29 00:01:33;;;;;;;55.95;28.60;;;3.50;99.90;;;;;;5100958;28;20036;-44
2021/11/29 00:03:59;;;;;;;51.33;27.77;;;3.50;99.90;;;;;;5108196;28;20028;-45
2021/11/29 00:06:25;;;;;;;56.35;28.30;;;3.50;99.90;;;;;;5108458;28;20027;-45
2021/11/29 00:08:51;;;;;;;58.50;29.52;;;3.50;99.90;;;;;;5108153;28;20038;-45
2021/11/29 00:11:17;;;;;;;51.50;28.15;;;3.50;99.90;;;;;;5107699;28;20106;-46
2021/11/29 00:13:42;;;;;;;54.97;28.60;;;3.50;99.90;;;;;;5108295;28;20125;-44
2021/11/29 00:16:08;;;;;;;58.95;30.48;;;3.40;99.90;;;;;;5107719;28;20077;-45
2021/11/29 00:18:35;;;;;;;55.42;28.92;;;3.50;99.90;;;;;;5108087;28;20039;-47
2021/11/29 00:21:01;;;;;;;50.22;27.58;;;3.50;99.90;;;;;;5107204;28;20025;-44
2021/11/29 00:23:27;;;;;;;56.15;29.38;;;3.50;99.90;;;;;;5107929;28;20034;-44
2021/11/29 00:25:53;;;;;;;54.33;28.83;;;3.50;99.90;;;;;;5106915;28;20020;-45
2021/11/29 00:28:19;;;;;;;54.00;28.60;;;3.50;99.90;;;;;;5105250;28;20246;-45
2021/11/29 00:30:46;;;;;;;55.28;30.25;;;3.50;99.90;;;;;;5098639;28;20273;-44
2021/11/29 00:33:12;;;;;;;56.15;28.05;;;3.50;99.90;;;;;;5107652;28;20031;-45
2021/11/29 00:35:38;;;;;;;52.40;27.83;;;3.50;99.90;;;;;;5107739;28;20020;-45
2021/11/29 00:38:05;;;;;;;53.22;29.15;;;3.50;99.90;;;;;;5107883;28;20518;-46
2021/11/29 00:40:32;;;;;;;53.28;27.27;;;3.50;99.90;;;;;;5107248;28;20054;-45
2021/11/29 00:42:58;;;;;;;53.55;27.63;;;3.50;99.90;;;;;;5107454;28;20303;-44
2021/11/29 00:45:24;;;;;;;55.63;28.85;;;3.50;99.90;;;;;;5108203;28;20074;-44
2021/11/29 00:47:50;;;;;;;52.50;29.27;;;3.50;99.90;;;;;;5108113;28;20023;-44
2021/11/29 00:50:17;;;;;;;47.08;26.42;;;3.50;99.90;;;;;;5105404;28;20024;-45
2021/11/29 00:52:43;;;;;;;50.20;26.45;;;3.50;99.90;;;;;;5107642;28;20081;-44
2021/11/29 00:55:10;;;;;;;50.15;25.27;;;3.50;99.90;;;;;;5107774;28;20016;-44
2021/11/29 00:57:36;;;;;;;44.88;25.45;;;3.50;99.90;;;;;;5105990;28;20511;-44
2021/11/29 01:00:07;;;;;;;46.65;25.35;;;3.50;99.90;;;;;;5096548;28;20024;-44
2021/11/29 01:02:34;;;;;;;42.72;23.33;;;3.50;99.90;;;;;;5107422;28;20051;-45
2021/11/29 01:04:59;;;;;;;44.22;23.08;;;3.50;99.90;;;;;;5107729;28;20020;-44
2021/11/29 01:07:25;;;;;;;50.75;24.40;;;3.50;99.90;;;;;;5107825;28;20441;-46
2021/11/29 01:09:51;;;;;;;42.65;23.17;;;3.60;99.90;;;;;;5107380;28;20406;-44
2021/11/29 01:12:17;;;;;;;39.50;22.08;;;3.60;99.90;;;;;;5105652;28;20115;-45
2021/11/29 01:14:43;;;;;;;39.97;20.65;;;3.60;99.90;;;;;;5107159;28;20024;-44
2021/11/29 01:17:10;;;;;;;38.10;21.35;;;3.50;99.90;;;;;;5107651;28;20497;-44
2021/11/29 01:19:36;;;;;;;40.88;21.02;;;3.50;99.90;;;;;;5105777;28;20023;-45
2021/11/29 01:22:02;;;;;;;37.05;22.00;;;3.50;99.90;;;;;;5106793;28;20489;-44
2021/11/29 01:24:28;;;;;;;38.50;21.75;;;3.60;99.90;;;;;;5106075;28;20030;-46
2021/11/29 01:26:54;;;;;;;39.38;21.40;;;3.50;99.90;;;;;;5107813;28;20036;-44
2021/11/29 01:29:20;;;;;;;36.92;22.10;;;3.60;99.90;;;;;;5104809;28;20119;-45
2021/11/29 01:31:46;;;;;;;39.92;20.13;;;3.60;99.90;;;;;;5106322;28;20039;-45
2021/11/29 01:34:12;;;;;;;40.28;22.73;;;3.60;99.90;;;;;;5109531;28;20028;-44
2021/11/29 01:36:39;;;;;;;35.95;20.70;;;3.60;99.90;;;;;;5110997;28;20035;-44
2021/11/29 01:39:05;;;;;;;39.55;21.08;;;3.60;99.90;;;;;;5110832;28;20015;-45
2021/11/29 01:41:31;;;;;;;37.38;20.08;;;3.60;99.90;;;;;;5110298;28;20034;-47
2021/11/29 01:43:57;;;;;;;40.58;21.02;;;3.60;99.90;;;;;;5110451;28;20039;-45
2021/11/29 01:46:23;;;;;;;51.22;23.05;;;3.70;99.90;;;;;;5111146;28;20036;-44
2021/11/29 01:48:50;;;;;;;37.17;20.83;;;3.60;99.90;;;;;;5110383;28;20027;-45
2021/11/29 01:51:16;;;;;;;38.75;20.65;;;3.60;99.90;;;;;;5110125;28;20097;-44
2021/11/29 01:53:42;;;;;;;37.03;21.42;;;3.60;99.90;;;;;;5110553;28;20427;-45
2021/11/29 01:56:08;;;;;;;35.88;20.67;;;3.60;99.90;;;;;;5110379;28;20534;-47
2021/11/29 01:58:36;;;;;;;39.00;22.05;;;3.60;99.90;;;;;;5109939;28;20027;-44
2021/11/29 02:01:06;;;;;;;38.63;20.83;;;3.50;99.90;;;;;;5100878;28;20122;-44
2021/11/29 02:03:32;;;;;;;35.72;19.80;;;3.60;99.90;;;;;;5110455;28;20027;-46
2021/11/29 02:05:58;;;;;;;37.13;20.30;;;3.60;99.90;;;;;;5110843;28;20052;-46
2021/11/29 02:08:24;;;;;;;38.35;21.08;;;3.60;99.90;;;;;;5109144;28;20442;-46
2021/11/29 02:10:49;;;;;;;36.95;21.33;;;3.60;99.90;;;;;;5109688;28;20031;-44
2021/11/29 02:13:17;;;;;;;36.15;20.58;;;3.60;99.90;;;;;;5109882;28;20035;-44
2021/11/29 02:15:43;;;;;;;37.63;21.65;;;3.60;99.90;;;;;;5110398;28;20030;-44
2021/11/29 02:18:09;;;;;;;37.15;20.45;;;3.60;99.90;;;;;;5110028;28;20020;-45
2021/11/29 02:20:36;;;;;;;37.63;21.58;;;3.60;99.90;;;;;;5109562;28;20024;-44
2021/11/29 02:23:03;;;;;;;38.50;21.27;;;3.60;99.90;;;;;;5110591;28;20449;-44
2021/11/29 02:25:29;;;;;;;33.40;19.95;;;3.60;99.90;;;;;;5109910;28;20028;-45
2021/11/29 02:27:56;;;;;;;36.50;20.25;;;3.70;99.90;;;;;;5108872;28;20554;-45
2021/11/29 02:30:25;;;;;;;28.25;17.33;;;3.60;99.90;;;;;;5100363;28;20059;-44
2021/11/29 02:32:52;;;;;;;29.27;16.48;;;3.60;99.90;;;;;;5109924;28;20381;-45
2021/11/29 02:35:17;;;;;;;29.77;16.58;;;3.60;99.90;;;;;;5109781;28;20414;-44
2021/11/29 02:37:43;;;;;;;31.67;18.33;;;3.60;99.90;;;;;;5109591;28;20080;-45
2021/11/29 02:40:10;;;;;;;27.17;16.15;;;3.70;99.90;;;;;;5108334;28;20108;-44
2021/11/29 02:42:35;;;;;;;28.75;17.02;;;3.60;99.90;;;;;;5109353;28;20063;-47
2021/11/29 02:45:01;;;;;;;31.38;16.70;;;3.60;99.90;;;;;;5109460;28;20059;-43
2021/11/29 02:47:27;;;;;;;31.30;18.15;;;3.70;99.90;;;;;;5108659;28;20321;-45
2021/11/29 02:49:53;;;;;;;28.60;15.98;;;3.60;99.90;;;;;;5108471;28;20055;-46
2021/11/29 02:52:19;;;;;;;23.60;14.23;;;3.60;99.90;;;;;;5109376;28;20106;-44
2021/11/29 02:54:45;;;;;;;27.45;14.90;;;3.60;99.90;;;;;;5109370;28;20457;-44
2021/11/29 02:57:14;;;;;;;26.23;15.25;;;3.60;99.90;;;;;;5109713;28;20023;-44
2021/11/29 02:59:41;;;;;;;28.40;15.57;;;3.60;99.90;;;;;;5101468;28;20027;-44
2021/11/29 03:02:10;;;;;;;27.15;14.32;;;3.60;99.90;;;;;;5106144;28;20111;-44
2021/11/29 03:04:37;;;;;;;28.10;14.70;;;3.60;99.90;;;;;;5109356;27;20050;-45
2021/11/29 03:07:04;;;;;;;26.83;14.52;;;3.60;99.90;;;;;;5109170;28;20323;-44
2021/11/29 03:09:30;;;;;;;25.13;14.55;;;3.50;99.90;;;;;;5109004;28;20027;-44
2021/11/29 03:11:57;;;;;;;23.48;13.63;;;3.50;99.90;;;;;;5108511;28;20056;-44
2021/11/29 03:14:23;;;;;;;25.65;13.88;;;3.50;99.90;;;;;;5098527;28;20043;-44
2021/11/29 03:16:52;;;;;;;25.00;12.95;;;3.50;99.90;;;;;;5087920;28;20031;-47
2021/11/29 03:19:18;;;;;;;21.38;12.55;;;3.50;99.90;;;;;;5088211;28;20442;-45
2021/11/29 03:21:44;;;;;;;24.60;12.10;;;3.50;99.90;;;;;;5087675;28;20024;-45
2021/11/29 03:24:10;;;;;;;22.85;11.10;;;3.50;99.90;;;;;;5088212;28;20032;-44
2021/11/29 03:26:37;;;;;;;19.13;10.93;;;3.40;99.90;;;;;;5088229;28;20024;-47
2021/11/29 03:29:06;;;;;;;18.27;10.25;;;3.40;99.90;;;;;;5084477;28;20394;-45
2021/11/29 03:31:33;;;;;;;19.52;11.35;;;3.40;99.90;;;;;;5086957;28;20031;-45
2021/11/29 03:34:01;;;;;;;18.15;10.23;;;3.40;99.90;;;;;;5089086;28;20351;-46
2021/11/29 03:36:29;;;;;;;20.20;11.60;;;3.40;99.90;;;;;;5088301;28;20026;-44
2021/11/29 03:38:57;;;;;;;18.83;10.93;;;3.40;99.90;;;;;;5088292;28;20024;-48
2021/11/29 03:41:23;;;;;;;17.10;9.85;;;3.40;99.90;;;;;;5087839;28;20397;-43
2021/11/29 03:43:49;;;;;;;14.80;9.00;;;3.40;99.90;;;;;;5087771;28;20058;-45
2021/11/29 03:46:15;;;;;;;16.13;10.40;;;3.40;99.90;;;;;;5088506;28;20315;-44
2021/11/29 03:48:41;;;;;;;19.73;10.15;;;3.40;99.90;;;;;;5088100;28;20035;-45
2021/11/29 03:51:06;;;;;;;16.65;9.77;;;3.40;99.90;;;;;;5087209;28;20540;-46
2021/11/29 03:53:32;;;;;;;18.90;10.35;;;3.40;99.90;;;;;;5088083;28;20035;-48
2021/11/29 03:55:58;;;;;;;15.77;10.27;;;3.40;99.90;;;;;;5088146;28;20016;-45
2021/11/29 03:58:24;;;;;;;18.65;9.52;;;3.40;99.90;;;;;;5082979;28;20079;-45
2021/11/29 04:00:50;;;;;;;18.90;10.93;;;3.40;99.90;;;;;;5092355;28;20070;-45
2021/11/29 04:03:16;;;;;;;16.30;9.35;;;3.40;99.90;;;;;;5108281;28;20016;-45
2021/11/29 04:05:41;;;;;;;19.90;10.82;;;3.40;99.90;;;;;;5108338;28;20119;-44
2021/11/29 04:08:07;;;;;;;16.50;10.13;;;3.40;99.90;;;;;;5108175;28;20026;-45
2021/11/29 04:10:34;;;;;;;20.52;11.15;;;3.40;99.90;;;;;;5107481;28;20019;-46
2021/11/29 04:12:59;;;;;;;15.75;10.18;;;3.40;99.90;;;;;;5106554;28;20058;-46
2021/11/29 04:15:25;;;;;;;17.67;10.85;;;3.40;99.90;;;;;;5106421;28;20447;-47
2021/11/29 04:17:51;;;;;;;15.05;9.80;;;3.40;99.90;;;;;;5108096;28;20521;-46
2021/11/29 04:20:17;;;;;;;17.90;10.60;;;3.30;99.90;;;;;;5106124;28;20020;-45
2021/11/29 04:22:46;;;;;;;15.18;10.23;;;3.30;99.90;;;;;;5107856;28;20015;-44
2021/11/29 04:25:16;;;;;;;17.30;10.13;;;3.30;99.90;;;;;;5108712;28;20273;-44
2021/11/29 04:27:43;;;;;;;18.40;10.85;;;3.30;99.90;;;;;;5108158;28;20015;-44
2021/11/29 04:30:13;;;;;;;14.70;9.70;;;3.20;99.90;;;;;;5096482;28;20024;-45
2021/11/29 04:32:40;;;;;;;16.02;9.48;;;3.20;99.90;;;;;;5102822;28;20026;-45
2021/11/29 04:35:07;;;;;;;13.93;9.20;;;3.20;99.90;;;;;;5107898;28;20035;-46
2021/11/29 04:37:33;;;;;;;16.20;10.18;;;3.20;99.90;;;;;;5107609;28;20043;-45
2021/11/29 04:39:59;;;;;;;16.33;9.95;;;3.30;99.90;;;;;;5108173;28;20023;-50
2021/11/29 04:42:25;;;;;;;15.90;10.25;;;3.30;99.90;;;;;;5107360;28;20555;-44
2021/11/29 04:44:50;;;;;;;14.88;9.82;;;3.30;99.90;;;;;;5107639;28;20107;-47
2021/11/29 04:47:16;;;;;;;20.30;11.68;;;3.20;99.90;;;;;;5107853;28;20412;-47
2021/11/29 04:49:41;;;;;;;15.52;10.40;;;3.20;99.90;;;;;;5107766;28;20035;-47
2021/11/29 04:52:08;;;;;;;16.25;10.50;;;3.20;99.90;;;;;;5105993;28;20464;-45
2021/11/29 04:54:33;;;;;;;16.23;10.30;;;3.20;99.90;;;;;;5107770;28;20028;-46
2021/11/29 04:56:59;;;;;;;16.77;10.82;;;3.20;99.90;;;;;;5104081;28;20378;-45
2021/11/29 04:59:25;;;;;;;21.38;10.68;;;3.20;99.90;;;;;;5087787;28;20405;-44
2021/11/29 05:01:50;;;;;;;17.25;11.18;;;3.20;99.90;;;;;;5096582;28;20365;-45
2021/11/29 05:04:16;;;;;;;16.17;10.75;;;3.20;99.90;;;;;;5111750;28;20062;-46
2021/11/29 05:06:42;;;;;;;16.10;10.63;;;3.20;99.90;;;;;;5111801;28;20032;-45
2021/11/29 05:09:11;;;;;;;15.48;10.50;;;3.20;99.90;;;;;;5111726;28;20046;-45
2021/11/29 05:11:38;;;;;;;18.23;10.57;;;3.20;99.90;;;;;;5110486;28;20020;-47
2021/11/29 05:14:04;;;;;;;18.83;10.63;;;3.20;99.90;;;;;;5110954;28;20282;-45
2021/11/29 05:16:30;;;;;;;15.05;9.82;;;3.30;99.90;;;;;;5112096;28;20528;-47
2021/11/29 05:18:56;;;;;;;17.48;11.00;;;3.30;99.90;;;;;;5111363;28;20024;-45
2021/11/29 05:21:22;;;;;;;19.33;11.45;;;3.30;99.90;;;;;;5110820;28;20107;-46
2021/11/29 05:23:48;;;;;;;15.60;10.40;;;3.30;99.90;;;;;;5111420;28;20388;-46
2021/11/29 05:26:20;;;;;;;16.00;10.05;;;3.30;99.90;;;;;;5111219;28;20034;-48
2021/11/29 05:28:47;;;;;;;18.23;11.20;;;3.30;99.90;;;;;;5096314;28;20086;-45
2021/11/29 05:31:12;;;;;;;15.50;10.00;;;3.30;99.90;;;;;;5102204;28;20023;-46
2021/11/29 05:33:38;;;;;;;18.10;11.02;;;3.30;99.90;;;;;;5109614;28;20165;-45
2021/11/29 05:36:04;;;;;;;17.52;10.15;;;3.30;99.90;;;;;;5109475;28;20088;-45
2021/11/29 05:38:30;;;;;;;17.05;10.98;;;3.30;99.90;;;;;;5111096;28;20527;-46
2021/11/29 05:40:56;;;;;;;16.95;10.48;;;3.30;99.90;;;;;;5110362;28;20032;-44
2021/11/29 05:43:21;;;;;;;15.13;10.35;;;3.40;99.90;;;;;;5110618;28;20042;-45
2021/11/29 05:45:47;;;;;;;15.95;9.57;;;3.30;99.90;;;;;;5110725;28;20030;-44
2021/11/29 05:48:13;;;;;;;16.85;10.27;;;3.40;99.90;;;;;;5110305;28;20024;-45
2021/11/29 05:50:38;;;;;;;14.32;9.73;;;3.30;99.90;;;;;;5104762;28;20458;-45
2021/11/29 05:53:05;;;;;;;15.02;9.60;;;3.30;99.90;;;;;;5089877;28;20031;-45
2021/11/29 05:55:31;;;;;;;13.85;9.70;;;3.30;99.90;;;;;;5089731;28;20111;-45
2021/11/29 05:57:57;;;;;;;16.15;9.57;;;3.30;99.90;;;;;;5088167;28;20062;-45
2021/11/29 06:00:22;;;;;;;15.57;10.35;;;3.30;99.90;;;;;;5092655;28;20028;-45
2021/11/29 06:02:48;;;;;;;15.13;9.82;;;3.30;99.90;;;;;;5091797;28;20035;-46
2021/11/29 06:05:16;;;;;;;16.08;10.73;;;3.30;99.90;;;;;;5089435;28;20032;-48
2021/11/29 06:07:42;;;;;;;18.05;10.60;;;3.30;99.90;;;;;;5089892;28;20170;-47
2021/11/29 06:10:09;;;;;;;17.92;10.57;;;3.30;99.90;;;;;;5089764;28;20394;-46
2021/11/29 06:12:35;;;;;;;21.60;11.27;;;3.20;99.90;;;;;;5089657;28;20050;-45
2021/11/29 06:15:01;;;;;;;17.42;10.93;;;3.30;99.90;;;;;;5089571;28;20517;-47
2021/11/29 06:17:26;;;;;;;15.98;10.30;;;3.30;99.90;;;;;;5089886;28;20020;-46
2021/11/29 06:19:52;;;;;;;14.73;9.73;;;3.30;99.90;;;;;;5089832;28;20076;-46
2021/11/29 06:22:18;;;;;;;17.20;10.57;;;3.30;99.90;;;;;;5089307;28;20024;-46
2021/11/29 06:24:43;;;;;;;14.77;9.95;;;3.30;99.90;;;;;;5089731;28;20036;-45
2021/11/29 06:27:09;;;;;;;15.23;10.23;;;3.30;99.90;;;;;;5073133;28;20032;-46
2021/11/29 06:29:35;;;;;;;14.30;9.88;;;3.20;99.90;;;;;;5084187;28;20024;-44
2021/11/29 06:32:00;;;;;;;14.20;9.60;;;3.20;99.90;;;;;;5087508;28;20043;-46
2021/11/29 06:34:26;;;;;;;17.38;10.07;;;3.20;99.90;;;;;;5087036;28;20028;-46
2021/11/29 06:36:53;;;;;;;15.48;10.98;;;3.20;99.90;;;;;;5092399;28;20107;-45
2021/11/29 06:39:21;;;;;;;15.13;9.63;;;3.20;99.90;;;;;;5089719;28;20084;-45
2021/11/29 06:41:47;;;;;;;14.20;10.02;;;3.20;99.90;;;;;;5089626;28;20461;-45
2021/11/29 06:44:13;;;;;;;19.75;10.90;;;3.20;99.90;;;;;;5090414;28;20485;-45
2021/11/29 06:46:39;;;;;;;16.75;10.43;;;3.20;99.90;;;;;;5090123;28;20043;-45
2021/11/29 06:49:04;;;;;;;16.10;10.02;;;3.20;99.90;;;;;;5090034;28;20084;-46
2021/11/29 06:51:32;;;;;;;20.00;11.20;;;3.20;99.90;;;;;;5090355;28;20028;-45
2021/11/29 06:53:58;;;;;;;19.23;11.90;;;3.20;99.90;;;;;;5098242;28;20101;-45
2021/11/29 06:56:24;;;;;;;17.02;10.90;;;3.20;99.90;;;;;;5092687;28;20086;-46
2021/11/29 06:58:49;;;;;;;15.55;11.07;;;3.20;99.90;;;;;;5087720;28;20023;-46
2021/11/29 07:01:15;;;;;;;18.35;11.73;;;3.20;99.90;;;;;;5101028;28;20099;-45
2021/11/29 07:03:42;;;;;;;21.17;12.82;;;3.20;99.90;;;;;;5089285;28;20470;-46
2021/11/29 07:06:08;;;;;;;22.20;13.60;;;3.20;99.90;;;;;;5078660;28;20478;-47
2021/11/29 07:08:34;;;;;;;18.27;11.68;;;3.10;99.90;;;;;;5069313;28;20028;-45
2021/11/29 07:10:59;;;;;;;20.45;11.98;;;3.10;99.90;;;;;;5088329;28;20425;-46
2021/11/29 07:13:25;;;;;;;21.50;13.02;;;3.20;99.90;;;;;;5070487;28;20063;-46
2021/11/29 07:15:51;;;;;;;19.90;12.65;;;3.20;99.90;;;;;;5089104;28;20541;-46
2021/11/29 07:18:17;;;;;;;19.13;12.27;;;3.20;99.90;;;;;;5099705;28;20088;-45
2021/11/29 07:20:43;;;;;;;19.48;11.85;;;3.20;99.90;;;;;;5089110;28;20016;-46
2021/11/29 07:23:09;;;;;;;19.17;12.15;;;3.20;99.90;;;;;;5071298;28;20021;-47
2021/11/29 07:25:34;;;;;;;20.30;11.65;;;3.20;99.90;;;;;;5073505;28;20074;-45
2021/11/29 07:28:00;;;;;;;18.35;12.07;;;3.20;99.90;;;;;;5086536;28;20040;-45
2021/11/29 07:30:27;;;;;;;18.88;11.65;;;3.20;99.90;;;;;;5086196;28;20481;-46
2021/11/29 07:32:54;;;;;;;17.92;11.20;;;3.20;99.90;;;;;;5103912;28;20265;-47
2021/11/29 07:35:22;;;;;;;16.77;10.57;;;3.20;99.90;;;;;;5107995;28;20020;-46
2021/11/29 07:37:49;;;;;;;21.88;11.38;;;3.30;99.90;;;;;;5090142;28;20117;-45
2021/11/29 07:40:15;;;;;;;16.55;10.85;;;3.30;99.90;;;;;;5068078;28;20060;-45
2021/11/29 07:42:41;;;;;;;19.17;11.18;;;3.30;99.90;;;;;;5075077;28;20067;-48
2021/11/29 07:45:11;;;;;;;16.42;10.45;;;3.30;99.90;;;;;;5069053;28;20577;-45
2021/11/29 07:47:41;;;;;;;15.88;9.88;;;3.30;99.90;;;;;;5087701;28;20149;-46
2021/11/29 07:50:16;;;;;;;18.20;10.43;;;3.40;99.90;;;;;;5096512;28;20028;-45
2021/11/29 07:52:43;;;;;;;15.75;10.00;;;3.40;99.90;;;;;;5104782;28;20088;-45
2021/11/29 07:55:15;;;;;;;17.55;9.80;;;3.40;99.90;;;;;;5108833;28;20073;-47
2021/11/29 07:57:41;;;;;;;17.88;11.35;;;3.40;99.90;;;;;;5099285;28;20027;-45
2021/11/29 08:00:18;;;;;;;16.85;9.98;;;3.40;99.90;;;;;;5095362;28;20035;-45
2021/11/29 08:02:45;;;;;;;15.65;10.60;;;3.40;99.90;;;;;;5096708;28;20023;-46
2021/11/29 08:05:11;;;;;;;16.15;10.13;;;3.40;99.90;;;;;;5099804;27;20587;-45
2021/11/29 08:07:37;;;;;;;15.82;9.95;;;3.40;99.90;;;;;;5088364;28;20054;-45
2021/11/29 08:10:05;;;;;;;14.43;9.82;;;3.40;99.90;;;;;;5088110;28;20106;-48
2021/11/29 08:12:31;;;;;;;16.40;10.48;;;3.40;99.90;;;;;;5081262;28;20032;-46
2021/11/29 08:14:56;;;;;;;15.32;10.35;;;3.40;99.90;;;;;;5084211;28;20024;-48
2021/11/29 08:17:22;;;;;;;16.45;10.60;;;3.40;99.90;;;;;;5069478;28;20032;-46
2021/11/29 08:19:48;;;;;;;16.42;10.43;;;3.40;99.90;;;;;;5081808;28;20206;-46
2021/11/29 08:22:14;;;;;;;19.85;10.90;;;3.50;99.90;;;;;;5076597;28;20332;-48
2021/11/29 08:24:40;;;;;;;18.92;11.35;;;3.50;99.90;;;;;;5068412;28;20039;-48
2021/11/29 08:27:06;;;;;;;18.85;11.02;;;3.50;99.90;;;;;;5068332;28;20118;-46
2021/11/29 08:29:32;;;;;;;17.33;10.85;;;3.60;99.90;;;;;;5087055;28;20037;-44
2021/11/29 08:31:59;;;;;;;16.13;10.88;;;3.60;99.90;;;;;;5099555;28;20028;-47
2021/11/29 08:34:24;;;;;;;17.90;10.82;;;3.60;99.90;;;;;;5103609;28;20028;-45
2021/11/29 08:36:51;;;;;;;16.77;10.77;;;3.60;99.90;;;;;;5087297;28;20045;-44
2021/11/29 08:39:16;;;;;;;20.85;10.82;;;3.60;99.90;;;;;;5108508;28;20026;-45
2021/11/29 08:41:42;;;;;;;18.58;11.40;;;3.60;99.90;;;;;;5088680;28;20020;-44
2021/11/29 08:44:08;;;;;;;19.73;12.15;;;3.60;99.90;;;;;;5071599;28;20123;-44
2021/11/29 08:46:34;;;;;;;19.77;12.02;;;3.60;99.90;;;;;;5089853;28;20489;-45
2021/11/29 08:49:00;;;;;;;20.10;12.20;;;3.60;99.90;;;;;;5096066;28;20028;-44
2021/11/29 08:51:26;;;;;;;19.45;11.27;;;3.60;99.90;;;;;;5083445;28;20024;-44
2021/11/29 08:53:52;;;;;;;19.63;11.50;;;3.70;99.90;;;;;;5071019;28;20028;-44
2021/11/29 08:56:17;;;;;;;20.38;11.90;;;3.70;99.90;;;;;;5090154;28;20024;-44
2021/11/29 08:58:44;;;;;;;19.58;11.32;;;3.70;99.90;;;;;;5087583;28;20032;-45
2021/11/29 09:01:10;;;;;;;21.25;12.50;;;3.70;99.90;;;;;;5098668;28;20020;-44
2021/11/29 09:03:36;;;;;;;19.08;11.85;;;3.70;99.90;;;;;;5085862;28;20562;-44
2021/11/29 09:06:02;;;;;;;21.30;12.32;;;3.70;99.90;;;;;;5070127;28;20025;-44
2021/11/29 09:08:29;;;;;;;22.38;12.73;;;3.70;99.90;;;;;;5072745;28;20020;-44
2021/11/29 09:10:55;;;;;;;23.10;13.68;;;3.80;99.90;;;;;;5089006;28;20024;-44
2021/11/29 09:13:21;;;;;;;21.38;12.95;;;3.80;99.90;;;;;;5096716;28;20031;-45
2021/11/29 09:15:47;;;;;;;25.30;13.93;;;3.70;99.90;;;;;;5097061;28;20504;-45
2021/11/29 09:18:14;;;;;;;23.65;13.77;;;3.80;99.90;;;;;;5085232;28;20033;-44
2021/11/29 09:20:41;;;;;;;24.73;14.73;;;3.80;99.90;;;;;;5069825;28;20021;-47
2021/11/29 09:23:12;;;;;;;23.30;13.48;;;3.80;99.90;;;;;;5088679;28;20024;-45
2021/11/29 09:25:41;;;;;;;23.60;13.10;;;3.80;99.90;;;;;;5087234;28;20029;-45
2021/11/29 09:28:12;;;;;;;24.52;13.98;;;3.80;99.90;;;;;;5069442;28;20477;-45
2021/11/29 09:30:39;;;;;;;;;;;3.80;99.90;;;;;;5093872;28;20403;-45
2021/11/29 09:33:04;;;;;;;23.35;13.10;;;3.80;99.90;;;;;;5097268;28;19916;-46
2021/11/29 09:35:30;;;;;;;23.80;12.63;;;3.90;99.90;;;;;;5088303;28;20501;-45
2021/11/29 09:37:57;;;;;;;27.52;14.52;;;3.90;99.90;;;;;;5075106;28;20068;-46
2021/11/29 09:40:25;;;;;;;26.67;14.40;;;4.00;99.90;;;;;;5070833;28;20132;-45
2021/11/29 09:42:52;;;;;;;26.48;14.80;;;4.00;99.90;;;;;;5071228;28;20051;-45
2021/11/29 09:45:21;;;;;;;29.83;15.05;;;4.20;99.90;;;;;;5086225;28;20030;-48
2021/11/29 09:47:48;;;;;;;22.30;12.85;;;4.30;99.90;;;;;;5092449;28;20081;-45
2021/11/29 09:50:15;;;;;;;22.52;12.85;;;4.30;99.90;;;;;;5088818;28;20253;-45
2021/11/29 09:52:41;;;;;;;34.08;14.05;;;4.30;99.90;;;;;;5082536;28;20024;-44
2021/11/29 09:55:09;;;;;;;21.67;13.18;;;4.30;99.90;;;;;;5089595;28;20031;-44
2021/11/29 09:57:37;;;;;;;21.45;12.90;;;4.40;99.90;;;;;;5093449;28;20055;-45
2021/11/29 10:00:04;;;;;;;23.90;13.48;;;4.40;99.90;;;;;;5092797;28;20012;-45
2021/11/29 10:02:29;;;;;;;23.15;13.50;;;4.40;99.90;;;;;;5097272;28;20028;-45
2021/11/29 10:04:55;;;;;;;24.38;13.27;;;4.40;99.90;;;;;;5091541;28;20028;-45
2021/11/29 10:07:29;;;;;;;21.35;13.00;;;4.30;99.90;;;;;;5091544;28;20323;-45
2021/11/29 10:09:56;;;;;;;24.63;13.55;;;4.30;99.90;;;;;;5073486;28;20032;-45
2021/11/29 10:12:26;;;;;;;18.20;11.90;;;4.30;99.90;;;;;;5071307;28;20064;-45
2021/11/29 10:15:12;;;;;;;20.10;13.07;;;4.40;99.90;;;;;;5072919;28;20025;-47
2021/11/29 10:17:38;;;;;;;21.42;12.15;;;4.30;99.90;;;;;;5090735;28;20103;-44
2021/11/29 10:20:05;;;;;;;21.27;12.63;;;4.30;99.90;;;;;;5071404;28;20091;-47
2021/11/29 10:22:32;;;;;;;25.48;14.60;;;4.40;99.90;;;;;;5092475;28;20427;-46
2021/11/29 10:25:18;;;;;;;23.83;13.63;;;4.40;99.90;;;;;;5084658;28;20247;-45
2021/11/29 10:27:45;;;;;;;22.33;13.27;;;4.40;99.90;;;;;;5095541;28;20270;-45
2021/11/29 10:30:24;;;;;;;20.48;11.75;;;4.40;99.90;;;;;;5099500;28;20093;-46
2021/11/29 10:32:50;;;;;;;19.73;12.07;;;4.50;99.90;;;;;;5101669;28;20051;-47
2021/11/29 10:35:35;;;;;;;22.15;12.43;;;4.40;99.90;;;;;;5097990;28;20170;-45
2021/11/29 10:38:04;;;;;;;19.63;11.20;;;4.50;99.90;;;;;;5088473;28;20023;-47
2021/11/29 10:40:29;;;;;;;20.75;11.65;;;4.50;99.90;;;;;;5088410;28;20028;-46
2021/11/29 10:43:03;;;;;;;18.55;11.15;;;4.50;99.90;;;;;;5087028;28;20035;-45
2021/11/29 10:45:29;;;;;;;21.17;12.70;;;4.50;99.90;;;;;;5086778;28;20062;-44
2021/11/29 10:47:55;;;;;;;22.05;11.95;;;4.50;99.90;;;;;;5087882;28;20566;-45
2021/11/29 10:50:29;;;;;;;19.25;11.75;;;4.40;99.90;;;;;;5072513;28;20097;-45
2021/11/29 10:53:11;;;;;;;18.80;11.77;;;4.30;99.90;;;;;;5067978;28;20082;-44
2021/11/29 10:55:56;;;;;;;20.90;12.07;;;4.30;99.90;;;;;;5078602;28;20118;-45
2021/11/29 10:58:25;;;;;;;21.92;11.45;;;4.30;99.90;;;;;;5096567;28;20496;-47
2021/11/29 11:00:51;;;;;;;23.38;13.30;;;4.40;99.90;;;;;;5097065;28;20440;-47
2021/11/29 11:03:16;;;;;;;18.80;10.95;;;4.40;99.90;;;;;;5106493;28;20027;-46
2021/11/29 11:05:59;;;;;;;20.00;11.82;;;4.30;99.90;;;;;;5089951;28;20228;-44
2021/11/29 11:08:35;;;;;;;21.42;12.02;;;4.30;99.90;;;;;;5089888;28;20505;-45
2021/11/29 11:11:21;;;;;;;21.08;11.80;;;4.40;99.90;;;;;;5084105;28;20031;-44
2021/11/29 11:14:09;;;;;;;20.15;11.23;;;4.40;99.90;;;;;;5071555;28;20025;-45
2021/11/29 11:16:44;;;;;;;22.35;12.25;;;4.50;99.90;;;;;;5082274;28;20031;-44
2021/11/29 11:19:25;;;;;;;20.23;11.65;;;4.50;99.90;;;;;;5077217;28;20446;-44
2021/11/29 11:21:52;;;;;;;19.95;12.13;;;4.50;99.90;;;;;;5074750;28;20373;-44
2021/11/29 11:24:28;;;;;;;20.30;11.32;;;4.50;99.90;;;;;;5089790;28;20020;-46
2021/11/29 11:26:58;;;;;;;18.80;10.40;;;4.60;99.90;;;;;;5070702;28;20039;-44
2021/11/29 11:30:10;;;;;;;21.83;12.00;;;4.60;99.90;;;;;;5087300;28;20059;-44
2021/11/29 11:32:37;;;;;;;19.45;11.20;;;4.50;99.90;;;;;;5085651;28;20088;-44
2021/11/29 11:35:19;;;;;;;19.48;10.95;;;4.50;99.90;;;;;;5088252;28;20024;-45
2021/11/29 11:37:55;;;;;;;19.40;11.43;;;4.50;99.90;;;;;;5069444;28;20017;-44
2021/11/29 11:40:34;;;;;;;17.02;10.88;;;4.50;99.90;;;;;;5082111;28;20024;-44
2021/11/29 11:43:02;;;;;;;18.67;11.18;;;4.50;99.90;;;;;;5073061;28;20085;-44
2021/11/29 11:45:30;;;;;;;19.77;10.43;;;4.50;99.90;;;;;;5079410;28;20047;-44
2021/11/29 11:47:59;;;;;;;18.15;11.02;;;4.50;99.90;;;;;;5093525;28;20028;-44
2021/11/29 11:50:33;;;;;;;17.10;10.25;;;4.40;99.90;;;;;;5077668;28;20028;-44
2021/11/29 11:53:00;;;;;;;19.85;11.15;;;4.40;99.90;;;;;;5068971;28;20025;-44
2021/11/29 11:55:34;;;;;;;19.00;11.38;;;4.40;99.90;;;;;;5073823;28;20028;-44
2021/11/29 11:58:09;;;;;;;18.20;10.75;;;4.40;99.90;;;;;;5086130;28;20386;-45
2021/11/29 12:00:53;;;;;;;21.40;11.05;;;4.40;99.90;;;;;;5093859;28;20174;-44
2021/11/29 12:03:28;;;;;;;17.85;10.55;;;4.40;99.90;;;;;;5087503;28;20028;-47
2021/11/29 12:05:54;;;;;;;17.85;11.57;;;4.40;99.90;;;;;;5083792;28;20217;-45
2021/11/29 12:08:50;;;;;;;19.02;11.35;;;4.40;99.90;;;;;;5070459;28;20118;-45
2021/11/29 12:11:25;;;;;;;22.35;12.20;;;4.30;99.90;;;;;;5082310;28;20351;-44
2021/11/29 12:14:11;;;;;;;24.20;12.25;;;4.40;99.90;;;;;;5069092;28;20044;-46
2021/11/29 12:16:41;;;;;;;22.17;12.40;;;4.30;99.90;;;;;;5079331;28;20806;-45
2021/11/29 12:19:26;;;;;;;23.23;12.40;;;4.30;99.90;;;;;;5081691;28;20031;-44
2021/11/29 12:21:54;;;;;;;18.60;11.07;;;4.30;99.90;;;;;;5097017;28;20054;-46
2021/11/29 12:24:23;;;;;;;21.10;11.50;;;4.30;99.90;;;;;;5085492;28;20071;-44
2021/11/29 12:26:49;;;;;;;24.27;12.63;;;4.40;99.90;;;;;;5085258;28;20023;-44
2021/11/29 12:29:21;;;;;;;21.50;11.68;;;4.40;99.90;;;;;;5094067;28;20392;-44
2021/11/29 12:31:47;;;;;;;25.38;11.80;;;4.40;99.90;;;;;;5099344;28;20039;-44
2021/11/29 12:34:13;;;;;;;22.17;12.88;;;4.40;99.90;;;;;;5099698;28;20036;-44
2021/11/29 12:36:57;;;;;;;23.15;12.45;;;4.40;99.90;;;;;;5095474;28;20024;-43
2021/11/29 12:39:41;;;;;;;23.52;12.30;;;4.40;99.90;;;;;;5086425;28;20021;-44
2021/11/29 12:42:19;;;;;;;23.23;12.88;;;4.40;99.90;;;;;;5087769;28;20020;-46